Terminal Aerodrome Forecast
Issued by NWS

Home | Current Version | Previous Version | Graphics & Text | Print | Product List | Glossary On
Versions: 1 2 3 4 5 6 7 8 9 10 11 12 13 14 15 16
000
FTUS43 KMPX 262320
TAFRWF
TAF
KRWF 262320Z 2700/2724 29008KT P6SM SKC
     FM270100 VRB03KT P6SM BKN250
     FM271100 08005KT P6SM VCSH OVC050 PROB30 2712/2716 -TSRA
      BKN025CB
     FM272100 VRB05KT P6SM BKN050 OVC100=

USA.gov is the U.S. government's official web portal to all federal, state and local government web resources and services.